LFOTLFLC

Guest
Details From LFOT - Tours Val De Loire AB
To LFLC - Clermont-Ferrand_Auvergne
Flight Number -
Tags generated
Created
Modified
Stats Distance 142 nm / 262 km
Max Altitude 9,600 ft / 2,926 m
Waypoints 3
Social Downloads 3
Likes 0
Share VATSIM

Download

Looking for another format? Having issues loading an existing format? Contact us
Advertisement - Login to hide

Notes

Basic altitude profile: - Ascent Rate: 2500ft/min - Ascent Speed: 250kts - Cruise Altitude: 35000ft - Cruise Speed: 420kts - Descent Rate: 1500ft/min - Descent Speed: 250kts Options: - Use NATs: yes - Use PACOTS: yes - Use low airways: yes - Use high airways: yes

Route

LFOT MC LFLC

ID Type Via Altitude Latitude Longitude Leg Dist Tot Dist Heading (true) Name
O LFOT APT - 0 ft / 0 m 47.43297˚ 0.72840˚ - 0 nm - Tours Val De Loire AB
MC NDB - 9,600 ft / 2,926 m 46.37261˚ 2.49267˚ 96 nm 96 nm 131° / 132° MONTLUCON NDB
O LFLC APT - 0 ft / 0 m 45.78671˚ 3.16997˚ 45 nm 141 nm 141° / 142° Clermont-Ferrand_Auvergne

Altitude Profile

Advertisement - Login to hide

LFOT

Details ICAO LFOT (TUF)
Name Tours Val De Loire AB
Region France
Timezone Europe/Paris (UTC+2.0)
Stats Elevation 356 ft / 109 m (AMSL)
Location 47.432974° 0.728402°
Runways 2
Magnetic Variation 0.260° E

METAR

LFOT 200930Z AUTO 12004KT 080V200 CAVOK 25/18 Q1021 NOSIG

Decode

TAF

TAF LFOT 200500Z 2006/2106 06005KT CAVOK TEMPO 2006/2007 3000 BR TEMPO 2021/2103 VRB03KT BECMG 2103/2106 36008KT TEMPO 2103/2106 3000 BR BKN005

Decode

Departure Runways

ID Width Length Bearing (true) Bearing (mag) Surface Threshold Offset Overrun Length
02 148 ft / 45 m 7,891 ft / 2,405 m 15.22° 14.96° Concrete 0 ft / 0 m 968 ft / 295 m
02R 197 ft / 60 m 4,925 ft / 1,501 m 15.24° 14.98° Grass 0 ft / 0 m 0 ft / 0 m
20 148 ft / 45 m 7,891 ft / 2,405 m 195.22° 194.96° Concrete 0 ft / 0 m 393 ft / 120 m
20L 197 ft / 60 m 4,925 ft / 1,501 m 195.24° 194.98° Grass 0 ft / 0 m 0 ft / 0 m

LFLC

Details ICAO LFLC (CFE)
Name Clermont-Ferrand_Auvergne
Region France
Timezone Europe/Paris (UTC+2.0)
Stats Elevation 1,089 ft / 332 m (AMSL)
Location 45.786712° 3.169967°
Runways 1
Magnetic Variation 1.043° E

METAR

LFLC 200930Z AUTO VRB02KT CAVOK 25/17 Q1021 NOSIG

Decode

TAF

TAF LFLC 200800Z 2009/2109 04005KT CAVOK TEMPO 2009/2011 FEW022 BECMG 2018/2021 VRB02KT BECMG 2107/2109 03005KT FEW026

Decode

Destination Runways

ID Width Length Bearing (true) Bearing (mag) Surface Threshold Offset Overrun Length
08 148 ft / 45 m 9,878 ft / 3,011 m 81.95° 80.91° Asphalt 0 ft / 0 m 0 ft / 0 m
26 148 ft / 45 m 9,878 ft / 3,011 m 261.98° 260.94° Asphalt 476 ft / 145 m 0 ft / 0 m

Approach Navaids

Runway Type Ident Frequency Range Bearing (true) Bearing (mag) Slope Elevation
26 Localiser CF 111.10 MHz 27 nm / 50 km 261.98° 260.94° - 1,089 ft / 332 m (AMSL)
26 Glidescope CF 111.10 MHz 27 nm / 50 km 261.98° 260.94° 3.00° 1,089 ft / 332 m (AMSL)
26 DME CF 111.10 MHz 27 nm / 50 km - - - 1,089 ft / 332 m (AMSL)

Popular Alternatives